sensor_id;sensor_type;location;lat;lon;timestamp;pressure;altitude;pressure_sealevel;temperature;humidity
69982;BME280;57319;56.274;43.980;2023-04-10T00:00:08;100595.66;;;2.77;46.40
69982;BME280;57319;56.274;43.980;2023-04-10T00:02:35;100595.59;;;2.76;47.05
69982;BME280;57319;56.274;43.980;2023-04-10T00:05:01;100598.09;;;2.74;47.44
69982;BME280;57319;56.274;43.980;2023-04-10T00:07:28;100601.44;;;2.73;48.10
69982;BME280;57319;56.274;43.980;2023-04-10T00:09:54;100594.75;;;2.75;47.91
69982;BME280;57319;56.274;43.980;2023-04-10T00:12:20;100595.56;;;2.74;47.95
69982;BME280;57319;56.274;43.980;2023-04-10T00:14:45;100595.47;;;2.71;48.35
69982;BME280;57319;56.274;43.980;2023-04-10T00:17:11;100600.47;;;2.68;48.88
69982;BME280;57319;56.274;43.980;2023-04-10T00:19:37;100597.00;;;2.66;48.66
69982;BME280;57319;56.274;43.980;2023-04-10T00:22:03;100592.56;;;2.60;49.87
69982;BME280;57319;56.274;43.980;2023-04-10T00:24:29;100594.03;;;2.53;50.41
69982;BME280;57319;56.274;43.980;2023-04-10T00:26:54;100592.16;;;2.48;51.20
69982;BME280;57319;56.274;43.980;2023-04-10T00:29:22;100596.16;;;2.41;51.71
69982;BME280;57319;56.274;43.980;2023-04-10T00:31:48;100602.72;;;2.34;52.36
69982;BME280;57319;56.274;43.980;2023-04-10T00:34:14;100599.22;;;2.31;52.58
69982;BME280;57319;56.274;43.980;2023-04-10T00:36:39;100598.28;;;2.29;53.14
69982;BME280;57319;56.274;43.980;2023-04-10T00:39:06;100594.66;;;2.22;53.93
69982;BME280;57319;56.274;43.980;2023-04-10T00:41:31;100592.78;;;2.16;53.68
69982;BME280;57319;56.274;43.980;2023-04-10T00:43:57;100601.22;;;2.15;53.78
69982;BME280;57319;56.274;43.980;2023-04-10T00:46:24;100595.19;;;2.12;53.87
69982;BME280;57319;56.274;43.980;2023-04-10T00:48:50;100595.19;;;2.12;53.54
69982;BME280;57319;56.274;43.980;2023-04-10T00:51:17;100593.50;;;2.12;53.33
69982;BME280;57319;56.274;43.980;2023-04-10T00:53:46;100598.63;;;2.14;53.03
69982;BME280;57319;56.274;43.980;2023-04-10T00:56:13;100596.97;;;2.14;53.80
69982;BME280;57319;56.274;43.980;2023-04-10T00:58:39;100589.34;;;2.14;54.64
69982;BME280;57319;56.274;43.980;2023-04-10T01:01:05;100588.22;;;2.06;53.98
69982;BME280;57319;56.274;43.980;2023-04-10T01:03:33;100588.97;;;2.03;53.83
69982;BME280;57319;56.274;43.980;2023-04-10T01:09:04;100593.75;;;1.96;55.13
69982;BME280;57319;56.274;43.980;2023-04-10T01:11:50;100594.47;;;1.92;55.48
69982;BME280;57319;56.274;43.980;2023-04-10T01:14:30;100595.84;;;1.83;55.20
69982;BME280;57319;56.274;43.980;2023-04-10T01:17:30;100587.09;;;1.75;55.17
69982;BME280;57319;56.274;43.980;2023-04-10T01:20:12;100593.72;;;1.72;55.42
69982;BME280;57319;56.274;43.980;2023-04-10T01:25:33;100590.22;;;1.68;55.28
69982;BME280;57319;56.274;43.980;2023-04-10T01:31:10;100589.44;;;1.69;56.07
69982;BME280;57319;56.274;43.980;2023-04-10T01:33:42;100590.94;;;1.64;57.29
69982;BME280;57319;56.274;43.980;2023-04-10T01:36:12;100591.66;;;1.61;57.38
69982;BME280;57319;56.274;43.980;2023-04-10T01:38:42;100592.38;;;1.57;57.66
69982;BME280;57319;56.274;43.980;2023-04-10T01:41:08;100595.53;;;1.51;58.11
69982;BME280;57319;56.274;43.980;2023-04-10T01:43:35;100592.75;;;1.45;57.57
69982;BME280;57319;56.274;43.980;2023-04-10T01:46:02;100594.28;;;1.40;58.14
69982;BME280;57319;56.274;43.980;2023-04-10T01:48:29;100594.97;;;1.36;58.54
69982;BME280;57319;56.274;43.980;2023-04-10T01:50:55;100594.66;;;1.28;58.69
69982;BME280;57319;56.274;43.980;2023-04-10T01:53:22;100595.53;;;1.29;59.36
69982;BME280;57319;56.274;43.980;2023-04-10T01:55:49;100590.41;;;1.27;59.22
69982;BME280;57319;56.274;43.980;2023-04-10T01:58:15;100596.25;;;1.26;59.00
69982;BME280;57319;56.274;43.980;2023-04-10T02:00:42;100591.34;;;1.29;59.21
69982;BME280;57319;56.274;43.980;2023-04-10T02:03:09;100598.06;;;1.29;60.26
69982;BME280;57319;56.274;43.980;2023-04-10T02:06:09;100590.28;;;1.24;60.38
69982;BME280;57319;56.274;43.980;2023-04-10T02:08:39;100600.38;;;1.23;60.51
69982;BME280;57319;56.274;43.980;2023-04-10T02:11:16;100600.25;;;1.20;61.54
69982;BME280;57319;56.274;43.980;2023-04-10T02:13:48;100596.56;;;1.11;61.46
69982;BME280;57319;56.274;43.980;2023-04-10T02:16:18;100600.69;;;1.09;62.29
69982;BME280;57319;56.274;43.980;2023-04-10T02:18:48;100595.41;;;1.03;62.19
69982;BME280;57319;56.274;43.980;2023-04-10T02:21:14;100597.03;;;1.02;62.02
69982;BME280;57319;56.274;43.980;2023-04-10T02:23:41;100597.84;;;1.01;62.14
69982;BME280;57319;56.274;43.980;2023-04-10T02:26:08;100597.84;;;1.01;61.81
69982;BME280;57319;56.274;43.980;2023-04-10T02:28:36;100602.84;;;1.00;62.14
69982;BME280;57319;56.274;43.980;2023-04-10T02:31:02;100605.44;;;1.01;63.02
69982;BME280;57319;56.274;43.980;2023-04-10T02:33:28;100602.00;;;0.99;63.00
69982;BME280;57319;56.274;43.980;2023-04-10T02:35:53;100597.94;;;1.03;62.86
69982;BME280;57319;56.274;43.980;2023-04-10T02:38:19;100592.72;;;1.00;62.87
69982;BME280;57319;56.274;43.980;2023-04-10T02:40:44;100606.38;;;1.04;63.78
69982;BME280;57319;56.274;43.980;2023-04-10T02:43:10;100601.25;;;1.02;63.52
69982;BME280;57319;56.274;43.980;2023-04-10T02:45:36;100595.50;;;1.06;64.17
69982;BME280;57319;56.274;43.980;2023-04-10T02:48:04;100603.16;;;1.08;63.95
69982;BME280;57319;56.274;43.980;2023-04-10T02:50:29;100598.91;;;1.07;63.55
69982;BME280;57319;56.274;43.980;2023-04-10T02:52:56;100598.78;;;1.04;64.68
69982;BME280;57319;56.274;43.980;2023-04-10T02:55:22;100598.84;;;1.05;64.52
69982;BME280;57319;56.274;43.980;2023-04-10T02:57:48;100600.63;;;1.08;64.90
69982;BME280;57319;56.274;43.980;2023-04-10T03:00:13;100603.28;;;1.11;65.08
69982;BME280;57319;56.274;43.980;2023-04-10T03:02:39;100595.56;;;1.08;65.56
69982;BME280;57319;56.274;43.980;2023-04-10T03:05:05;100604.09;;;1.10;65.91
69982;BME280;57319;56.274;43.980;2023-04-10T03:07:33;100605.09;;;1.13;66.69
69982;BME280;57319;56.274;43.980;2023-04-10T03:09:58;100609.34;;;1.14;67.72
69982;BME280;57319;56.274;43.980;2023-04-10T03:12:27;100615.53;;;1.21;67.68
69982;BME280;57319;56.274;43.980;2023-04-10T03:14:53;100612.16;;;1.22;67.11
69982;BME280;57319;56.274;43.980;2023-04-10T03:17:18;100610.69;;;1.27;67.76
69982;BME280;57319;56.274;43.980;2023-04-10T03:19:44;100613.34;;;1.30;68.11
69982;BME280;57319;56.274;43.980;2023-04-10T03:22:10;100610.94;;;1.33;68.51
69982;BME280;57319;56.274;43.980;2023-04-10T03:24:35;100611.97;;;1.39;68.64
69982;BME280;57319;56.274;43.980;2023-04-10T03:27:02;100618.88;;;1.43;68.19
69982;BME280;57319;56.274;43.980;2023-04-10T03:29:28;100614.84;;;1.48;68.14
69982;BME280;57319;56.274;43.980;2023-04-10T03:31:54;100616.75;;;1.53;68.43
69982;BME280;57319;56.274;43.980;2023-04-10T03:34:20;100615.19;;;1.57;68.00
69982;BME280;57319;56.274;43.980;2023-04-10T03:36:45;100619.47;;;1.58;68.02
69982;BME280;57319;56.274;43.980;2023-04-10T03:39:11;100620.50;;;1.63;68.63
69982;BME280;57319;56.274;43.980;2023-04-10T03:41:36;100627.41;;;1.67;68.19
69982;BME280;57319;56.274;43.980;2023-04-10T03:44:02;100624.97;;;1.69;67.60
69982;BME280;57319;56.274;43.980;2023-04-10T03:46:28;100619.09;;;1.72;65.62
69982;BME280;57319;56.274;43.980;2023-04-10T03:48:54;100623.38;;;1.73;64.65
69982;BME280;57319;56.274;43.980;2023-04-10T03:51:19;100623.50;;;1.76;62.36
69982;BME280;57319;56.274;43.980;2023-04-10T03:53:45;100628.75;;;1.80;62.32
69982;BME280;57319;56.274;43.980;2023-04-10T03:56:11;100625.69;;;1.89;61.11
69982;BME280;57319;56.274;43.980;2023-04-10T03:58:37;100625.88;;;1.94;60.43
69982;BME280;57319;56.274;43.980;2023-04-10T04:01:04;100625.31;;;2.02;59.85
69982;BME280;57319;56.274;43.980;2023-04-10T04:03:29;100627.09;;;2.05;59.52
69982;BME280;57319;56.274;43.980;2023-04-10T04:05:55;100623.06;;;2.10;59.26
69982;BME280;57319;56.274;43.980;2023-04-10T04:08:21;100625.75;;;2.15;58.97
69982;BME280;57319;56.274;43.980;2023-04-10T04:10:46;100626.13;;;2.26;58.78
69982;BME280;57319;56.274;43.980;2023-04-10T04:13:12;100623.00;;;2.33;57.77
69982;BME280;57319;56.274;43.980;2023-04-10T04:15:37;100618.13;;;2.39;57.39
69982;BME280;57319;56.274;43.980;2023-04-10T04:18:03;100625.16;;;2.46;57.16
69982;BME280;57319;56.274;43.980;2023-04-10T04:20:28;100614.31;;;2.52;56.94
69982;BME280;57319;56.274;43.980;2023-04-10T04:22:54;100614.66;;;2.61;56.83
69982;BME280;57319;56.274;43.980;2023-04-10T04:25:20;100618.34;;;2.71;56.00
69982;BME280;57319;56.274;43.980;2023-04-10T04:27:45;100625.63;;;2.86;55.18
69982;BME280;57319;56.274;43.980;2023-04-10T04:30:11;100614.19;;;3.00;54.83
69982;BME280;57319;56.274;43.980;2023-04-10T04:32:37;100614.63;;;3.14;53.76
69982;BME280;57319;56.274;43.980;2023-04-10T04:35:02;100613.38;;;3.29;52.02
69982;BME280;57319;56.274;43.980;2023-04-10T04:37:28;100617.97;;;3.40;51.36
69982;BME280;57319;56.274;43.980;2023-04-10T04:39:54;100615.88;;;3.54;50.42
69982;BME280;57319;56.274;43.980;2023-04-10T04:42:19;100617.88;;;3.66;50.00
69982;BME280;57319;56.274;43.980;2023-04-10T04:44:45;100622.47;;;3.78;49.58
69982;BME280;57319;56.274;43.980;2023-04-10T04:47:10;100612.56;;;3.87;48.90
69982;BME280;57319;56.274;43.980;2023-04-10T04:49:36;100612.09;;;4.02;48.70
69982;BME280;57319;56.274;43.980;2023-04-10T04:52:02;100614.19;;;4.16;47.47
69982;BME280;57319;56.274;43.980;2023-04-10T04:54:27;100620.53;;;4.30;47.16
69982;BME280;57319;56.274;43.980;2023-04-10T04:56:53;100626.72;;;4.40;46.38
69982;BME280;57319;56.274;43.980;2023-04-10T04:59:18;100615.91;;;4.49;46.05
69982;BME280;57319;56.274;43.980;2023-04-10T05:01:44;100616.91;;;4.55;46.13
69982;BME280;57319;56.274;43.980;2023-04-10T05:04:09;100621.44;;;4.66;45.99
69982;BME280;57319;56.274;43.980;2023-04-10T05:06:35;100618.31;;;4.78;45.71
69982;BME280;57319;56.274;43.980;2023-04-10T05:09:01;100620.31;;;4.89;45.66
69982;BME280;57319;56.274;43.980;2023-04-10T05:11:27;100623.19;;;5.03;44.55
69982;BME280;57319;56.274;43.980;2023-04-10T05:13:52;100621.72;;;5.13;44.47
69982;BME280;57319;56.274;43.980;2023-04-10T05:16:18;100621.94;;;5.22;43.55
69982;BME280;57319;56.274;43.980;2023-04-10T05:18:45;100619.63;;;5.32;43.44
69982;BME280;57319;56.274;43.980;2023-04-10T05:21:11;100622.31;;;5.39;42.66
69982;BME280;57319;56.274;43.980;2023-04-10T05:23:37;100624.16;;;5.47;42.19
69982;BME280;57319;56.274;43.980;2023-04-10T05:26:02;100623.53;;;5.55;41.77
69982;BME280;57319;56.274;43.980;2023-04-10T05:28:28;100630.63;;;5.69;40.73
69982;BME280;57319;56.274;43.980;2023-04-10T05:30:54;100624.91;;;5.81;39.51
69982;BME280;57319;56.274;43.980;2023-04-10T05:33:19;100630.25;;;5.93;39.45
69982;BME280;57319;56.274;43.980;2023-04-10T05:35:45;100631.34;;;6.04;38.46
69982;BME280;57319;56.274;43.980;2023-04-10T05:38:11;100629.09;;;6.18;38.37
69982;BME280;57319;56.274;43.980;2023-04-10T05:40:37;100633.53;;;6.28;37.75
69982;BME280;57319;56.274;43.980;2023-04-10T05:43:02;100639.81;;;6.44;37.78
69982;BME280;57319;56.274;43.980;2023-04-10T05:45:28;100632.41;;;6.60;36.64
69982;BME280;57319;56.274;43.980;2023-04-10T05:47:54;100631.81;;;6.75;36.22
69982;BME280;57319;56.274;43.980;2023-04-10T05:50:20;100640.53;;;6.88;35.99
69982;BME280;57319;56.274;43.980;2023-04-10T05:52:46;100627.09;;;7.00;35.26
69982;BME280;57319;56.274;43.980;2023-04-10T05:55:11;100625.66;;;7.17;35.30
69982;BME280;57319;56.274;43.980;2023-04-10T05:57:38;100628.44;;;7.33;35.06
69982;BME280;57319;56.274;43.980;2023-04-10T06:00:05;100634.59;;;7.44;34.02
69982;BME280;57319;56.274;43.980;2023-04-10T06:02:31;100635.66;;;7.58;34.04
69982;BME280;57319;56.274;43.980;2023-04-10T06:04:57;100633.25;;;7.72;31.31
69982;BME280;57319;56.274;43.980;2023-04-10T06:07:22;100633.47;;;7.91;31.55
69982;BME280;57319;56.274;43.980;2023-04-10T06:09:49;100637.94;;;8.04;31.93
69982;BME280;57319;56.274;43.980;2023-04-10T06:12:14;100642.28;;;8.11;32.44
69982;BME280;57319;56.274;43.980;2023-04-10T06:14:40;100635.50;;;8.15;31.51
69982;BME280;57319;56.274;43.980;2023-04-10T06:17:06;100639.81;;;8.19;31.05
69982;BME280;57319;56.274;43.980;2023-04-10T06:19:31;100639.06;;;8.31;31.14
69982;BME280;57319;56.274;43.980;2023-04-10T06:21:57;100644.28;;;8.40;31.03
69982;BME280;57319;56.274;43.980;2023-04-10T06:24:23;100633.25;;;8.46;31.17
69982;BME280;57319;56.274;43.980;2023-04-10T06:26:51;100634.19;;;8.53;30.94
69982;BME280;57319;56.274;43.980;2023-04-10T06:29:17;100636.88;;;8.65;30.46
69982;BME280;57319;56.274;43.980;2023-04-10T06:31:43;100637.88;;;8.78;30.24
69982;BME280;57319;56.274;43.980;2023-04-10T06:34:08;100641.47;;;8.98;29.57
69982;BME280;57319;56.274;43.980;2023-04-10T06:36:34;100639.03;;;9.19;28.81
69982;BME280;57319;56.274;43.980;2023-04-10T06:39:00;100640.84;;;9.32;30.23
69982;BME280;57319;56.274;43.980;2023-04-10T06:41:27;100644.31;;;9.42;29.56
69982;BME280;57319;56.274;43.980;2023-04-10T06:43:52;100646.97;;;9.56;28.71
69982;BME280;57319;56.274;43.980;2023-04-10T06:46:18;100647.94;;;9.72;28.65
69982;BME280;57319;56.274;43.980;2023-04-10T06:48:44;100641.94;;;9.80;27.25
69982;BME280;57319;56.274;43.980;2023-04-10T06:51:09;100648.00;;;9.92;27.36
69982;BME280;57319;56.274;43.980;2023-04-10T06:53:35;100651.50;;;10.01;25.87
69982;BME280;57319;56.274;43.980;2023-04-10T06:56:01;100653.22;;;10.09;27.14
69982;BME280;57319;56.274;43.980;2023-04-10T06:58:27;100645.50;;;10.09;26.82
69982;BME280;57319;56.274;43.980;2023-04-10T07:00:52;100642.09;;;10.17;27.03
69982;BME280;57319;56.274;43.980;2023-04-10T07:03:18;100649.00;;;10.29;26.67
69982;BME280;57319;56.274;43.980;2023-04-10T07:05:44;100645.59;;;10.33;26.69
69982;BME280;57319;56.274;43.980;2023-04-10T07:08:10;100642.19;;;10.34;26.60
69982;BME280;57319;56.274;43.980;2023-04-10T07:10:35;100639.63;;;10.45;25.49
69982;BME280;57319;56.274;43.980;2023-04-10T07:13:01;100633.66;;;10.51;25.86
69982;BME280;57319;56.274;43.980;2023-04-10T07:15:27;100646.53;;;10.51;26.19
69982;BME280;57319;56.274;43.980;2023-04-10T07:17:53;100636.22;;;10.54;26.39
69982;BME280;57319;56.274;43.980;2023-04-10T07:20:20;100645.66;;;10.63;25.70
69982;BME280;57319;56.274;43.980;2023-04-10T07:22:46;100642.25;;;10.64;25.86
69982;BME280;57319;56.274;43.980;2023-04-10T07:25:12;100637.97;;;10.69;25.58
69982;BME280;57319;56.274;43.980;2023-04-10T07:27:38;100633.69;;;10.76;25.12
69982;BME280;57319;56.274;43.980;2023-04-10T07:30:04;100638.81;;;10.77;24.95
69982;BME280;57319;56.274;43.980;2023-04-10T07:32:31;100643.13;;;10.81;24.86
69982;BME280;57319;56.274;43.980;2023-04-10T07:34:59;100635.38;;;10.91;24.90
69982;BME280;57319;56.274;43.980;2023-04-10T07:37:24;100623.38;;;10.93;23.96
69982;BME280;57319;56.274;43.980;2023-04-10T07:39:50;100632.78;;;11.01;24.14
69982;BME280;57319;56.274;43.980;2023-04-10T07:42:16;100625.06;;;11.12;24.18
69982;BME280;57319;56.274;43.980;2023-04-10T07:44:42;100635.38;;;10.98;23.82
69982;BME280;57319;56.274;43.980;2023-04-10T07:47:07;100622.50;;;11.08;23.62
69982;BME280;57319;56.274;43.980;2023-04-10T07:49:33;100630.22;;;11.12;24.00
69982;BME280;57319;56.274;43.980;2023-04-10T07:51:58;100625.06;;;11.25;23.99
69982;BME280;57319;56.274;43.980;2023-04-10T07:54:24;100624.16;;;11.32;23.37
69982;BME280;57319;56.274;43.980;2023-04-10T07:56:53;100617.28;;;11.37;22.73
69982;BME280;57319;56.274;43.980;2023-04-10T07:59:19;100620.72;;;11.44;23.30
69982;BME280;57319;56.274;43.980;2023-04-10T08:01:45;100621.56;;;11.49;23.43
69982;BME280;57319;56.274;43.980;2023-04-10T08:04:10;100618.16;;;11.41;22.74
69982;BME280;57319;56.274;43.980;2023-04-10T08:06:36;100622.44;;;11.54;22.98
69982;BME280;57319;56.274;43.980;2023-04-10T08:09:02;100619.81;;;11.62;22.47
69982;BME280;57319;56.274;43.980;2023-04-10T08:11:32;100617.22;;;11.63;22.54
69982;BME280;57319;56.274;43.980;2023-04-10T08:13:59;100618.09;;;11.62;22.45
69982;BME280;57319;56.274;43.980;2023-04-10T08:16:32;100612.94;;;11.62;22.40
69982;BME280;57319;56.274;43.980;2023-04-10T08:18:59;100614.63;;;11.65;21.91
69982;BME280;57319;56.274;43.980;2023-04-10T08:21:26;100611.19;;;11.67;22.26
69982;BME280;57319;56.274;43.980;2023-04-10T08:23:59;100611.19;;;11.69;21.91
69982;BME280;57319;56.274;43.980;2023-04-10T08:26:26;100606.88;;;11.73;22.15
69982;BME280;57319;56.274;43.980;2023-04-10T08:28:54;100600.00;;;11.76;22.03
69982;BME280;57319;56.274;43.980;2023-04-10T08:31:22;100597.41;;;11.73;21.00
69982;BME280;57319;56.274;43.980;2023-04-10T08:33:48;100594.84;;;11.75;21.64
69982;BME280;57319;56.274;43.980;2023-04-10T08:36:14;100600.81;;;11.81;22.06
69982;BME280;57319;56.274;43.980;2023-04-10T08:38:41;100603.41;;;11.81;21.40
69982;BME280;57319;56.274;43.980;2023-04-10T08:41:09;100598.25;;;11.83;21.56
69982;BME280;57319;56.274;43.980;2023-04-10T08:43:36;100586.19;;;11.85;21.30
69982;BME280;57319;56.274;43.980;2023-04-10T08:46:02;100592.19;;;11.92;22.12
69982;BME280;57319;56.274;43.980;2023-04-10T08:48:35;100583.59;;;11.96;21.21
69982;BME280;57319;56.274;43.980;2023-04-10T08:51:03;100586.97;;;12.05;21.44
69982;BME280;57319;56.274;43.980;2023-04-10T08:53:30;100580.94;;;12.10;21.10
69982;BME280;57319;56.274;43.980;2023-04-10T08:56:01;100593.00;;;12.11;20.88
69982;BME280;57319;56.274;43.980;2023-04-10T08:58:28;100578.34;;;12.13;20.34
69982;BME280;57319;56.274;43.980;2023-04-10T09:00:55;100579.19;;;12.15;20.65
69982;BME280;57319;56.274;43.980;2023-04-10T09:03:21;100583.50;;;12.17;20.78
69982;BME280;57319;56.274;43.980;2023-04-10T09:05:47;100576.59;;;12.18;20.52
69982;BME280;57319;56.274;43.980;2023-04-10T09:08:14;100583.44;;;12.24;20.63
69982;BME280;57319;56.274;43.980;2023-04-10T09:10:39;100577.41;;;12.26;20.63
69982;BME280;57319;56.274;43.980;2023-04-10T09:13:05;100589.44;;;12.27;20.31
69982;BME280;57319;56.274;43.980;2023-04-10T09:15:59;100583.44;;;12.28;20.09
69982;BME280;57319;56.274;43.980;2023-04-10T09:18:46;100579.94;;;12.35;20.56
69982;BME280;57319;56.274;43.980;2023-04-10T09:21:14;100581.56;;;12.44;20.26
69982;BME280;57319;56.274;43.980;2023-04-10T09:23:41;100574.63;;;12.57;19.92
69982;BME280;57319;56.274;43.980;2023-04-10T09:26:25;100573.72;;;12.61;19.15
69982;BME280;57319;56.274;43.980;2023-04-10T09:29:03;100584.00;;;12.66;19.67
69982;BME280;57319;56.274;43.980;2023-04-10T09:31:31;100577.88;;;12.76;19.45
69982;BME280;57319;56.274;43.980;2023-04-10T09:34:17;100582.16;;;12.79;19.06
69982;BME280;57319;56.274;43.980;2023-04-10T09:36:53;100578.72;;;12.80;19.73
69982;BME280;57319;56.274;43.980;2023-04-10T09:39:20;100573.56;;;12.80;19.36
69982;BME280;57319;56.274;43.980;2023-04-10T09:41:50;100575.16;;;12.93;20.00
69982;BME280;57319;56.274;43.980;2023-04-10T09:44:38;100574.28;;;12.93;19.88
69982;BME280;57319;56.274;43.980;2023-04-10T09:52:21;100577.50;;;13.18;19.13
69982;BME280;57319;56.274;43.980;2023-04-10T09:54:47;100572.41;;;13.10;18.82
69982;BME280;57319;56.274;43.980;2023-04-10T09:57:17;100575.72;;;13.21;19.46
69982;BME280;57319;56.274;43.980;2023-04-10T09:59:51;100583.41;;;13.35;19.00
69982;BME280;57319;56.274;43.980;2023-04-10T10:02:19;100571.28;;;13.37;18.78
69982;BME280;57319;56.274;43.980;2023-04-10T10:04:46;100578.13;;;13.43;19.34
69982;BME280;57319;56.274;43.980;2023-04-10T10:07:17;100578.84;;;13.54;19.11
69982;BME280;57319;56.274;43.980;2023-04-10T10:09:44;100564.09;;;13.61;19.24
69982;BME280;57319;56.274;43.980;2023-04-10T10:12:12;100565.78;;;13.65;18.55
69982;BME280;57319;56.274;43.980;2023-04-10T10:15:13;100570.06;;;13.68;19.43
69982;BME280;57319;56.274;43.980;2023-04-10T10:18:06;100565.78;;;13.68;18.38
69982;BME280;57319;56.274;43.980;2023-04-10T10:20:35;100563.16;;;13.70;18.94
69982;BME280;57319;56.274;43.980;2023-04-10T10:23:02;100558.66;;;13.84;18.90
69982;BME280;57319;56.274;43.980;2023-04-10T10:25:30;100571.47;;;13.94;18.88
69982;BME280;57319;56.274;43.980;2023-04-10T10:27:58;100566.34;;;13.90;18.72
69982;BME280;57319;56.274;43.980;2023-04-10T10:30:24;100552.56;;;13.88;18.34
69982;BME280;57319;56.274;43.980;2023-04-10T10:32:50;100554.94;;;14.02;19.24
69982;BME280;57319;56.274;43.980;2023-04-10T10:35:17;100558.31;;;14.09;18.83
69982;BME280;57319;56.274;43.980;2023-04-10T10:37:42;100564.00;;;14.31;18.28
69982;BME280;57319;56.274;43.980;2023-04-10T10:40:21;100551.91;;;14.33;18.05
69982;BME280;57319;56.274;43.980;2023-04-10T10:45:22;100552.88;;;14.81;18.00
69982;BME280;57319;56.274;43.980;2023-04-10T10:47:51;100558.59;;;15.00;17.80
69982;BME280;57319;56.274;43.980;2023-04-10T10:50:17;100540.09;;;15.20;17.81
69982;BME280;57319;56.274;43.980;2023-04-10T10:52:54;100542.16;;;16.62;16.51
69982;BME280;57319;56.274;43.980;2023-04-10T10:57:59;100537.09;;;17.85;15.95
69982;BME280;57319;56.274;43.980;2023-04-10T11:01:02;100538.72;;;18.17;15.60
69982;BME280;57319;56.274;43.980;2023-04-10T11:08:38;100526.81;;;17.80;15.52
69982;BME280;57319;56.274;43.980;2023-04-10T11:19:05;100530.75;;;17.35;15.64
69982;BME280;57319;56.274;43.980;2023-04-10T11:21:32;100519.97;;;16.83;15.94
69982;BME280;57319;56.274;43.980;2023-04-10T11:31:47;100512.19;;;17.76;15.36
69982;BME280;57319;56.274;43.980;2023-04-10T11:34:19;100512.22;;;18.31;15.06
69982;BME280;57319;56.274;43.980;2023-04-10T11:36:46;100509.19;;;18.70;14.84
69982;BME280;57319;56.274;43.980;2023-04-10T11:39:16;100519.38;;;18.76;14.94
69982;BME280;57319;56.274;43.980;2023-04-10T11:44:15;100506.25;;;20.83;13.04
69982;BME280;57319;56.274;43.980;2023-04-10T11:46:43;100509.06;;;21.38;13.23
69982;BME280;57319;56.274;43.980;2023-04-10T11:49:17;100506.47;;;21.38;13.00
69982;BME280;57319;56.274;43.980;2023-04-10T11:51:45;100505.56;;;22.13;12.92
69982;BME280;57319;56.274;43.980;2023-04-10T11:54:16;100499.63;;;22.80;12.20
69982;BME280;57319;56.274;43.980;2023-04-10T11:56:44;100493.00;;;23.06;11.90
69982;BME280;57319;56.274;43.980;2023-04-10T11:59:13;100490.16;;;23.92;11.84
69982;BME280;57319;56.274;43.980;2023-04-10T12:01:44;100497.19;;;24.52;11.76
69982;BME280;57319;56.274;43.980;2023-04-10T12:04:17;100489.22;;;24.68;11.00
69982;BME280;57319;56.274;43.980;2023-04-10T12:06:47;100490.56;;;24.76;11.35
69982;BME280;57319;56.274;43.980;2023-04-10T12:09:14;100487.66;;;24.05;11.36
69982;BME280;57319;56.274;43.980;2023-04-10T12:14:41;100476.88;;;24.54;11.00
69982;BME280;57319;56.274;43.980;2023-04-10T12:17:10;100479.34;;;25.15;10.50
69982;BME280;57319;56.274;43.980;2023-04-10T12:19:38;100476.72;;;23.97;10.84
69982;BME280;57319;56.274;43.980;2023-04-10T12:22:04;100472.06;;;24.47;10.77
69982;BME280;57319;56.274;43.980;2023-04-10T12:24:43;100470.91;;;24.67;10.41
69982;BME280;57319;56.274;43.980;2023-04-10T12:27:25;100473.91;;;25.04;10.29
69982;BME280;57319;56.274;43.980;2023-04-10T12:29:53;100463.53;;;25.30;10.80
69982;BME280;57319;56.274;43.980;2023-04-10T12:32:20;100473.66;;;22.75;11.70
69982;BME280;57319;56.274;43.980;2023-04-10T12:34:54;100469.38;;;21.09;12.16
69982;BME280;57319;56.274;43.980;2023-04-10T12:37:48;100469.31;;;21.48;12.10
69982;BME280;57319;56.274;43.980;2023-04-10T12:40:15;100462.81;;;21.76;11.90
69982;BME280;57319;56.274;43.980;2023-04-10T12:42:40;100461.47;;;22.39;11.88
69982;BME280;57319;56.274;43.980;2023-04-10T12:45:07;100456.97;;;22.06;11.71
69982;BME280;57319;56.274;43.980;2023-04-10T12:47:47;100458.53;;;23.46;10.90
69982;BME280;57319;56.274;43.980;2023-04-10T12:50:17;100452.38;;;24.68;10.71
69982;BME280;57319;56.274;43.980;2023-04-10T12:52:44;100453.41;;;24.66;10.38
69982;BME280;57319;56.274;43.980;2023-04-10T12:55:15;100442.13;;;24.04;10.68
69982;BME280;57319;56.274;43.980;2023-04-10T12:57:43;100450.88;;;23.89;10.73
69982;BME280;57319;56.274;43.980;2023-04-10T13:00:11;100441.31;;;24.33;10.44
69982;BME280;57319;56.274;43.980;2023-04-10T13:02:38;100445.25;;;24.26;10.67
69982;BME280;57319;56.274;43.980;2023-04-10T13:05:05;100439.28;;;23.13;11.24
69982;BME280;57319;56.274;43.980;2023-04-10T13:07:31;100430.72;;;23.26;10.99
69982;BME280;57319;56.274;43.980;2023-04-10T13:09:58;100430.41;;;23.94;10.95
69982;BME280;57319;56.274;43.980;2023-04-10T13:12:24;100434.59;;;24.43;10.52
69982;BME280;57319;56.274;43.980;2023-04-10T13:14:51;100432.59;;;24.32;11.07
69982;BME280;57319;56.274;43.980;2023-04-10T13:17:19;100438.72;;;22.91;11.27
69982;BME280;57319;56.274;43.980;2023-04-10T13:19:48;100430.16;;;22.53;11.74
69982;BME280;57319;56.274;43.980;2023-04-10T13:22:14;100432.16;;;22.31;12.06
69982;BME280;57319;56.274;43.980;2023-04-10T13:24:40;100425.44;;;22.08;11.55
69982;BME280;57319;56.274;43.980;2023-04-10T13:27:06;100418.78;;;21.65;12.16
69982;BME280;57319;56.274;43.980;2023-04-10T13:29:38;100428.81;;;20.79;13.05
69982;BME280;57319;56.274;43.980;2023-04-10T13:32:04;100429.94;;;20.53;12.73
69982;BME280;57319;56.274;43.980;2023-04-10T13:34:31;100424.41;;;19.97;12.98